createdAt,value
2019-03-04T00:00:02.816Z,10.30
2019-03-04T00:01:16.094Z,10.30
2019-03-04T00:02:25.661Z,10.30
2019-03-04T00:03:32.809Z,10.30
2019-03-04T00:04:39.970Z,10.30
2019-03-04T00:05:47.869Z,10.30
2019-03-04T00:06:55.047Z,10.30
2019-03-04T00:08:02.203Z,10.30
2019-03-04T00:09:11.695Z,10.30
2019-03-04T00:10:19.029Z,10.30
2019-03-04T00:11:26.201Z,10.30
2019-03-04T00:12:33.360Z,10.30
2019-03-04T00:13:40.511Z,10.30
2019-03-04T00:14:47.668Z,10.30
2019-03-04T00:15:54.852Z,10.30
2019-03-04T00:17:02.065Z,10.30
2019-03-04T00:18:09.182Z,10.30
2019-03-04T00:19:16.386Z,10.30
2019-03-04T00:20:23.551Z,10.30
2019-03-04T00:21:30.720Z,10.30
2019-03-04T00:22:37.889Z,10.30
2019-03-04T00:23:44.963Z,10.30
2019-03-04T00:24:52.124Z,10.20
2019-03-04T00:25:59.271Z,10.30
2019-03-04T00:27:06.535Z,10.20
2019-03-04T00:28:13.714Z,10.20
2019-03-04T00:29:20.800Z,10.20
2019-03-04T00:30:27.962Z,10.20
2019-03-04T00:31:35.161Z,10.20
2019-03-04T00:32:45.156Z,10.20
2019-03-04T00:33:52.609Z,10.20
2019-03-04T00:34:59.757Z,10.10
2019-03-04T00:36:06.924Z,10.10
2019-03-04T00:37:14.077Z,10.20
2019-03-04T00:38:21.778Z,10.10
2019-03-04T00:39:29.470Z,10.10
2019-03-04T00:40:36.635Z,10.10
2019-03-04T00:41:43.811Z,10.10
2019-03-04T00:42:50.967Z,10.10
2019-03-04T00:43:58.132Z,10.10
2019-03-04T00:45:05.655Z,10.10
2019-03-04T00:46:13.931Z,10.00
2019-03-04T00:47:21.100Z,10.00
2019-03-04T00:48:28.271Z,10.00
2019-03-04T00:49:35.451Z,10.00
2019-03-04T00:50:43.008Z,10.00
2019-03-04T00:51:50.363Z,10.00
2019-03-04T00:52:57.535Z,10.00
2019-03-04T00:54:04.887Z,10.00
2019-03-04T00:55:12.763Z,10.00
2019-03-04T00:56:19.960Z,10.00
2019-03-04T00:57:27.112Z,10.00
2019-03-04T00:58:34.294Z,10.00
2019-03-04T00:59:41.429Z,10.00
2019-03-04T01:00:48.582Z,9.90
2019-03-04T01:01:56.815Z,9.90
2019-03-04T01:03:04.122Z,9.90
2019-03-04T01:04:11.313Z,10.00
2019-03-04T01:05:18.670Z,9.90
2019-03-04T01:06:25.833Z,9.90
2019-03-04T01:07:32.976Z,9.90
2019-03-04T01:08:40.122Z,9.90
2019-03-04T01:09:47.314Z,9.90
2019-03-04T01:10:54.463Z,9.90
2019-03-04T01:12:01.628Z,9.90
2019-03-04T01:13:08.789Z,9.90
2019-03-04T01:14:15.957Z,9.90
2019-03-04T01:15:23.548Z,9.90
2019-03-04T01:16:31.877Z,9.90
2019-03-04T01:17:39.030Z,9.90
2019-03-04T01:18:47.161Z,9.90
2019-03-04T01:19:56.084Z,9.90
2019-03-04T01:21:03.314Z,9.90
2019-03-04T01:22:11.204Z,9.90
2019-03-04T01:23:18.908Z,9.90
2019-03-04T01:24:25.986Z,9.90
2019-03-04T01:25:33.141Z,9.90
2019-03-04T01:26:40.310Z,9.90
2019-03-04T01:27:47.702Z,9.90
2019-03-04T01:28:54.771Z,9.90
2019-03-04T01:30:01.931Z,9.90
2019-03-04T01:31:09.455Z,9.90
2019-03-04T01:32:16.613Z,9.90
2019-03-04T01:33:23.759Z,9.90
2019-03-04T01:34:30.934Z,9.90
2019-03-04T01:35:38.132Z,9.90
2019-03-04T01:36:46.491Z,9.90
2019-03-04T01:37:53.658Z,9.80
2019-03-04T01:39:00.805Z,9.90
2019-03-04T01:40:13.186Z,9.90
2019-03-04T01:41:21.097Z,9.80
2019-03-04T01:42:28.314Z,9.80
2019-03-04T01:43:35.410Z,9.80
2019-03-04T01:44:42.557Z,9.80
2019-03-04T01:45:49.706Z,9.80
2019-03-04T01:46:56.846Z,9.80
2019-03-04T01:48:04.009Z,9.80
2019-03-04T01:49:11.162Z,9.80
2019-03-04T01:50:19.092Z,9.80
2019-03-04T01:51:26.250Z,9.80
2019-03-04T01:52:33.401Z,9.80
2019-03-04T01:53:40.556Z,9.70
2019-03-04T01:54:47.703Z,9.80
2019-03-04T01:55:54.853Z,9.80
2019-03-04T01:57:01.958Z,9.70
2019-03-04T01:58:10.373Z,9.80
2019-03-04T01:59:17.524Z,9.70
2019-03-04T02:00:24.779Z,9.80
2019-03-04T02:01:31.921Z,9.70
2019-03-04T02:02:39.081Z,9.70
2019-03-04T02:03:46.259Z,9.70
2019-03-04T02:04:53.509Z,9.70
2019-03-04T02:06:00.658Z,9.80
2019-03-04T02:07:08.735Z,9.80
2019-03-04T02:08:16.212Z,9.70
2019-03-04T02:09:23.877Z,9.70
2019-03-04T02:10:31.029Z,9.70
2019-03-04T02:11:38.183Z,9.80
2019-03-04T02:12:45.462Z,9.70
2019-03-04T02:13:52.628Z,9.80
2019-03-04T02:14:59.832Z,9.80
2019-03-04T02:16:06.943Z,9.80
2019-03-04T02:17:14.088Z,9.80
2019-03-04T02:18:21.256Z,9.80
2019-03-04T02:19:28.398Z,9.80
2019-03-04T02:20:35.589Z,9.80
2019-03-04T02:21:42.742Z,9.80
2019-03-04T02:22:49.892Z,9.80
2019-03-04T02:23:58.481Z,9.80
2019-03-04T02:25:06.594Z,9.80
2019-03-04T02:26:25.044Z,9.80
2019-03-04T02:27:32.193Z,9.80
2019-03-04T02:28:39.346Z,9.80
2019-03-04T02:29:46.508Z,9.80
2019-03-04T02:30:53.657Z,9.80
2019-03-04T02:32:00.850Z,9.80
2019-03-04T02:33:07.992Z,9.80
2019-03-04T02:34:15.176Z,9.80
2019-03-04T02:35:22.328Z,9.80
2019-03-04T02:36:29.406Z,9.80
2019-03-04T02:37:36.565Z,9.80
2019-03-04T02:38:45.185Z,9.80
2019-03-04T02:39:52.346Z,9.80
2019-03-04T02:40:59.420Z,9.80
2019-03-04T02:42:06.577Z,9.80
2019-03-04T02:43:13.679Z,9.80
2019-03-04T02:44:20.834Z,9.80
2019-03-04T02:45:27.996Z,9.80
2019-03-04T02:46:35.149Z,9.80
2019-03-04T02:47:42.297Z,9.80
2019-03-04T02:48:49.463Z,9.80
2019-03-04T02:49:56.611Z,9.80
2019-03-04T02:51:03.765Z,9.80
2019-03-04T02:52:10.977Z,9.80
2019-03-04T02:53:18.137Z,9.90
2019-03-04T02:54:25.309Z,9.90
2019-03-04T02:55:32.464Z,9.90
2019-03-04T02:56:39.607Z,9.80
2019-03-04T02:57:46.874Z,9.80
2019-03-04T02:58:54.046Z,9.90
2019-03-04T03:00:01.207Z,9.90
2019-03-04T03:01:09.952Z,9.90
2019-03-04T03:02:17.094Z,9.90
2019-03-04T03:03:24.244Z,9.90
2019-03-04T03:04:31.438Z,9.90
2019-03-04T03:05:38.601Z,9.90
2019-03-04T03:06:45.772Z,9.90
2019-03-04T03:07:52.932Z,9.90
2019-03-04T03:09:00.091Z,10.00
2019-03-04T03:10:07.841Z,10.00
2019-03-04T03:11:14.994Z,10.00
2019-03-04T03:12:22.185Z,10.00
2019-03-04T03:13:29.254Z,10.00
2019-03-04T03:14:36.412Z,10.00
2019-03-04T03:15:43.491Z,10.00
2019-03-04T03:16:50.658Z,10.00
2019-03-04T03:17:57.838Z,10.00
2019-03-04T03:19:04.989Z,10.00
2019-03-04T03:20:13.360Z,10.00
2019-03-04T03:21:20.518Z,10.00
2019-03-04T03:22:27.610Z,10.00
2019-03-04T03:23:34.784Z,10.00
2019-03-04T03:24:41.971Z,10.00
2019-03-04T03:25:49.127Z,10.00
2019-03-04T03:26:56.298Z,10.00
2019-03-04T03:28:03.460Z,10.00
2019-03-04T03:29:10.631Z,10.00
2019-03-04T03:30:17.919Z,10.10
2019-03-04T03:31:25.077Z,10.00
2019-03-04T03:32:32.277Z,10.00
2019-03-04T03:33:39.423Z,10.00
2019-03-04T03:34:46.603Z,10.10
2019-03-04T03:35:53.794Z,10.10
2019-03-04T03:37:00.918Z,10.00
2019-03-04T03:38:08.087Z,10.10
2019-03-04T03:39:15.173Z,10.10
2019-03-04T03:40:22.570Z,10.10
2019-03-04T03:41:29.825Z,10.10
2019-03-04T03:42:37.062Z,10.10
2019-03-04T03:43:44.209Z,10.10
2019-03-04T03:44:51.365Z,10.10
2019-03-04T03:45:58.530Z,10.10
2019-03-04T03:47:05.717Z,10.10
2019-03-04T03:48:12.869Z,10.10
2019-03-04T03:49:20.024Z,10.10
2019-03-04T03:50:27.208Z,10.10
2019-03-04T03:51:35.837Z,10.10
2019-03-04T03:52:43.022Z,10.10
2019-03-04T03:53:50.171Z,10.10
2019-03-04T03:54:57.323Z,10.10
2019-03-04T03:56:04.805Z,10.20
2019-03-04T03:57:11.978Z,10.20
2019-03-04T03:58:19.148Z,10.10
2019-03-04T03:59:26.336Z,10.20
2019-03-04T04:00:33.491Z,10.20
2019-03-04T04:01:40.650Z,10.20
2019-03-04T04:02:47.840Z,10.20
2019-03-04T04:03:55.045Z,10.20
2019-03-04T04:05:02.126Z,10.20
2019-03-04T04:06:09.314Z,10.20
2019-03-04T04:07:16.499Z,10.20
2019-03-04T04:08:23.647Z,10.20
2019-03-04T04:09:30.819Z,10.20
2019-03-04T04:10:37.980Z,10.20
2019-03-04T04:11:48.727Z,10.20
2019-03-04T04:12:56.318Z,10.30
2019-03-04T04:14:04.728Z,10.20
2019-03-04T04:15:12.976Z,10.30
2019-03-04T04:16:20.169Z,10.20
2019-03-04T04:17:27.342Z,10.20
2019-03-04T04:18:34.544Z,10.20
2019-03-04T04:19:41.704Z,10.30
2019-03-04T04:20:48.877Z,10.30
2019-03-04T04:21:56.034Z,10.30
2019-03-04T04:23:03.191Z,10.30
2019-03-04T04:24:10.367Z,10.30
2019-03-04T04:25:17.531Z,10.30
2019-03-04T04:26:24.694Z,10.30
2019-03-04T04:27:31.857Z,10.20
2019-03-04T04:28:39.033Z,10.30
2019-03-04T04:29:46.123Z,10.20
2019-03-04T04:30:53.286Z,10.20
2019-03-04T04:32:00.458Z,10.20
2019-03-04T04:33:07.686Z,10.20
2019-03-04T04:34:14.892Z,10.30
2019-03-04T04:35:22.072Z,10.20
2019-03-04T04:36:29.228Z,10.30
2019-03-04T04:37:36.327Z,10.30
2019-03-04T04:38:44.486Z,10.30
2019-03-04T04:39:51.695Z,10.30
2019-03-04T04:40:58.830Z,10.30
2019-03-04T04:42:07.310Z,10.30
2019-03-04T04:43:14.486Z,10.30
2019-03-04T04:44:21.634Z,10.30
2019-03-04T04:45:28.784Z,10.30
2019-03-04T04:47:03.300Z,10.30
2019-03-04T04:48:10.966Z,10.30
2019-03-04T04:49:18.155Z,10.30
2019-03-04T04:50:26.492Z,10.30
2019-03-04T04:51:34.681Z,10.30
2019-03-04T04:52:42.168Z,10.30
2019-03-04T04:53:49.417Z,10.30
2019-03-04T04:54:56.583Z,10.30
2019-03-04T04:56:03.705Z,10.30
2019-03-04T04:57:10.829Z,10.30
2019-03-04T04:58:18.011Z,10.30
2019-03-04T04:59:25.174Z,10.30
2019-03-04T05:00:32.357Z,10.30
2019-03-04T05:01:39.505Z,10.30
2019-03-04T05:02:47.786Z,10.30
2019-03-04T05:03:56.051Z,10.30
2019-03-04T05:05:03.252Z,10.30
2019-03-04T05:06:10.421Z,10.30
2019-03-04T05:07:17.640Z,10.30
2019-03-04T05:08:24.730Z,10.20
2019-03-04T05:09:31.887Z,10.20
2019-03-04T05:10:39.054Z,10.20
2019-03-04T05:11:46.243Z,10.30
2019-03-04T05:12:53.411Z,10.20
2019-03-04T05:14:00.570Z,10.20
2019-03-04T05:15:09.629Z,10.20
2019-03-04T05:16:16.796Z,10.20
2019-03-04T05:17:23.925Z,10.30
2019-03-04T05:18:31.081Z,10.20
2019-03-04T05:19:38.245Z,10.20
2019-03-04T05:20:45.411Z,10.20
2019-03-04T05:21:52.546Z,10.20
2019-03-04T05:22:59.739Z,10.20
2019-03-04T05:24:06.895Z,10.20
2019-03-04T05:25:14.553Z,10.10
2019-03-04T05:26:21.726Z,10.10
2019-03-04T05:27:28.874Z,10.10
2019-03-04T05:28:36.012Z,10.10
2019-03-04T05:29:43.106Z,10.10
2019-03-04T05:30:50.269Z,10.10
2019-03-04T05:31:57.423Z,10.10
2019-03-04T05:33:04.588Z,10.10
2019-03-04T05:34:11.745Z,10.10
2019-03-04T05:35:18.911Z,10.00
2019-03-04T05:36:27.170Z,10.00
2019-03-04T05:37:34.341Z,10.00
2019-03-04T05:38:41.488Z,10.00
2019-03-04T05:39:48.649Z,10.00
2019-03-04T05:40:55.818Z,10.00
2019-03-04T05:42:02.984Z,10.00
2019-03-04T05:43:10.218Z,10.00
2019-03-04T05:44:17.379Z,10.00
2019-03-04T05:45:24.561Z,10.00
2019-03-04T05:46:31.709Z,10.00
2019-03-04T05:47:39.112Z,10.00
2019-03-04T05:48:46.192Z,10.00
2019-03-04T05:49:53.377Z,10.00
2019-03-04T05:51:00.553Z,10.00
2019-03-04T05:52:07.811Z,10.00
2019-03-04T05:53:14.960Z,10.00
2019-03-04T05:54:22.057Z,10.00
2019-03-04T05:55:29.343Z,10.00
2019-03-04T05:56:36.857Z,10.00
2019-03-04T05:57:44.041Z,10.00
2019-03-04T05:58:51.137Z,10.00
2019-03-04T05:59:58.290Z,9.90
2019-03-04T06:01:28.676Z,9.90
2019-03-04T06:02:35.824Z,9.90
2019-03-04T06:03:42.977Z,9.90
2019-03-04T06:04:50.142Z,9.90
2019-03-04T06:05:57.385Z,9.90
2019-03-04T06:07:23.465Z,9.90
2019-03-04T06:08:30.558Z,9.80
2019-03-04T06:09:37.705Z,9.80
2019-03-04T06:10:44.865Z,9.80
2019-03-04T06:11:52.010Z,9.80
2019-03-04T06:12:59.167Z,9.80
2019-03-04T06:14:07.896Z,9.80
2019-03-04T06:15:20.017Z,9.80
2019-03-04T06:16:27.173Z,9.80
2019-03-04T06:17:34.330Z,9.80
2019-03-04T06:18:41.491Z,9.80
2019-03-04T06:19:48.717Z,9.80
2019-03-04T06:20:55.891Z,9.80
2019-03-04T06:22:03.047Z,9.90
2019-03-04T06:23:10.240Z,9.90
2019-03-04T06:24:17.392Z,9.90
2019-03-04T06:25:27.377Z,9.90
2019-03-04T06:26:34.532Z,9.90
2019-03-04T06:27:41.765Z,9.90
2019-03-04T06:28:49.988Z,9.90
2019-03-04T06:29:57.060Z,9.90
2019-03-04T06:31:04.238Z,10.00
2019-03-04T06:32:11.403Z,10.00
2019-03-04T06:33:18.585Z,10.00
2019-03-04T06:34:25.728Z,10.00
2019-03-04T06:35:32.886Z,10.00
2019-03-04T06:36:41.150Z,10.00
2019-03-04T06:37:48.340Z,10.00
2019-03-04T06:38:55.497Z,10.00
2019-03-04T06:40:02.672Z,10.00
2019-03-04T06:41:10.797Z,10.00
2019-03-04T06:42:18.122Z,10.00
2019-03-04T06:43:26.276Z,10.00
2019-03-04T06:44:33.463Z,10.10
2019-03-04T06:45:40.629Z,10.10
2019-03-04T06:46:47.794Z,10.10
2019-03-04T06:47:55.021Z,10.10
2019-03-04T06:49:02.224Z,10.10
2019-03-04T06:50:30.207Z,10.10
2019-03-04T06:51:49.239Z,10.10
2019-03-04T06:52:56.934Z,10.20
2019-03-04T06:54:51.399Z,10.20
2019-03-04T06:56:11.959Z,10.20
2019-03-04T06:57:28.503Z,10.20
2019-03-04T06:58:33.195Z,10.20
2019-03-04T07:00:44.049Z,10.20
2019-03-04T07:01:56.367Z,10.20
2019-03-04T07:03:08.982Z,10.20
2019-03-04T07:04:27.201Z,10.20
2019-03-04T07:05:53.847Z,10.30
2019-03-04T07:07:01.191Z,10.20
2019-03-04T07:08:09.839Z,10.30
2019-03-04T07:09:19.957Z,10.30
2019-03-04T07:10:27.119Z,10.30
2019-03-04T07:11:34.759Z,10.30
2019-03-04T07:12:42.391Z,10.30
2019-03-04T07:13:50.814Z,10.30
2019-03-04T07:14:58.094Z,10.30
2019-03-04T07:16:06.077Z,10.40
2019-03-04T07:17:14.693Z,10.40
2019-03-04T07:18:22.531Z,10.40
2019-03-04T07:19:33.439Z,10.40
2019-03-04T07:20:40.600Z,10.40
2019-03-04T07:21:48.097Z,10.40
2019-03-04T07:22:56.176Z,10.50
2019-03-04T07:24:03.949Z,10.50
2019-03-04T07:25:12.106Z,10.50
2019-03-04T07:26:19.789Z,10.60
2019-03-04T07:27:27.017Z,10.50
2019-03-04T07:28:34.199Z,10.50
2019-03-04T07:29:41.363Z,10.60
2019-03-04T07:30:48.527Z,10.60
2019-03-04T07:31:55.752Z,10.60
2019-03-04T07:33:02.947Z,10.60
2019-03-04T07:34:10.107Z,10.70
2019-03-04T07:35:17.391Z,10.60
2019-03-04T07:36:24.559Z,10.70
2019-03-04T07:37:31.735Z,10.70
2019-03-04T07:39:14.871Z,10.70
2019-03-04T07:40:22.378Z,10.70
2019-03-04T07:41:43.037Z,10.80
2019-03-04T07:42:51.931Z,10.80
2019-03-04T07:43:59.255Z,10.80
2019-03-04T07:45:08.078Z,10.80
2019-03-04T07:46:16.404Z,10.80
2019-03-04T07:47:23.565Z,10.90
2019-03-04T07:48:31.133Z,10.90
2019-03-04T07:49:38.291Z,10.90
2019-03-04T07:50:45.593Z,10.90
2019-03-04T07:51:52.892Z,11.00
2019-03-04T07:53:00.140Z,11.00
2019-03-04T07:54:07.521Z,11.00
2019-03-04T07:55:14.686Z,11.00
2019-03-04T07:56:21.861Z,11.00
2019-03-04T07:57:29.190Z,11.10
2019-03-04T07:58:36.492Z,11.10
2019-03-04T07:59:45.456Z,11.10
2019-03-04T08:00:52.544Z,11.10
2019-03-04T08:01:59.898Z,11.10
2019-03-04T08:03:07.176Z,11.10
2019-03-04T08:04:14.401Z,11.20
2019-03-04T08:05:23.295Z,11.20
2019-03-04T08:06:32.110Z,11.20
2019-03-04T08:07:42.739Z,11.20
2019-03-04T08:10:09.867Z,11.20
2019-03-04T08:12:34.266Z,11.30
2019-03-04T08:13:50.674Z,11.30
2019-03-04T08:14:57.789Z,11.40
2019-03-04T08:16:06.596Z,11.40
2019-03-04T08:17:14.119Z,11.40
2019-03-04T08:18:21.301Z,11.40
2019-03-04T08:19:28.376Z,11.50
2019-03-04T08:20:36.329Z,11.40
2019-03-04T08:21:43.539Z,11.50
2019-03-04T08:22:50.896Z,11.50
2019-03-04T08:23:57.979Z,11.50
2019-03-04T08:25:05.680Z,11.50
2019-03-04T08:26:13.001Z,11.60
2019-03-04T08:27:20.197Z,11.60
2019-03-04T08:28:28.590Z,11.60
2019-03-04T08:29:35.864Z,11.60
2019-03-04T08:30:43.346Z,11.60
2019-03-04T08:31:50.531Z,11.60
2019-03-04T08:32:57.926Z,11.70
2019-03-04T08:34:05.108Z,11.70
2019-03-04T08:35:12.284Z,11.70
2019-03-04T08:36:19.396Z,11.70
2019-03-04T08:37:26.587Z,11.70
2019-03-04T08:38:33.730Z,11.80
2019-03-04T08:39:40.941Z,11.80
2019-03-04T08:40:48.150Z,11.90
2019-03-04T08:41:55.333Z,11.80
2019-03-04T08:43:02.504Z,11.90
2019-03-04T08:44:09.652Z,11.90
2019-03-04T08:45:19.378Z,11.90
2019-03-04T08:46:26.578Z,12.00
2019-03-04T08:47:33.736Z,12.00
2019-03-04T08:48:40.853Z,12.00
2019-03-04T08:49:47.951Z,12.00
2019-03-04T08:50:55.132Z,12.00
2019-03-04T08:52:02.284Z,12.00
2019-03-04T08:53:09.448Z,12.10
2019-03-04T08:54:16.603Z,12.10
2019-03-04T08:55:23.764Z,12.10
2019-03-04T08:56:32.696Z,12.10
2019-03-04T08:57:40.009Z,12.10
2019-03-04T08:58:47.184Z,12.10
2019-03-04T08:59:54.336Z,12.20
2019-03-04T09:01:01.784Z,12.20
2019-03-04T09:02:09.501Z,12.20
2019-03-04T09:03:16.708Z,12.20
2019-03-04T09:04:23.902Z,12.20
2019-03-04T09:05:31.051Z,12.30
2019-03-04T09:06:38.314Z,12.20
2019-03-04T09:07:45.617Z,12.30
2019-03-04T09:08:53.141Z,12.30
2019-03-04T09:10:00.345Z,12.30
2019-03-04T09:11:07.472Z,12.30
2019-03-04T09:12:14.711Z,12.40
2019-03-04T09:13:21.861Z,12.40
2019-03-04T09:14:29.021Z,12.40
2019-03-04T09:15:37.239Z,12.40
2019-03-04T09:16:44.446Z,12.40
2019-03-04T09:17:51.605Z,12.40
2019-03-04T09:18:58.765Z,12.50
2019-03-04T09:20:06.833Z,12.50
2019-03-04T09:21:13.837Z,12.50
2019-03-04T09:22:21.067Z,12.50
2019-03-04T09:23:28.247Z,12.60
2019-03-04T09:24:35.431Z,12.50
2019-03-04T09:25:54.997Z,12.60
2019-03-04T09:27:02.174Z,12.60
2019-03-04T09:28:09.348Z,12.60
2019-03-04T09:29:16.506Z,12.60
2019-03-04T09:30:24.416Z,12.70
2019-03-04T09:31:31.576Z,12.60
2019-03-04T09:32:38.731Z,12.70
2019-03-04T09:33:45.895Z,12.70
2019-03-04T09:34:53.051Z,12.60
2019-03-04T09:36:00.498Z,12.70
2019-03-04T09:37:07.721Z,12.60
2019-03-04T09:38:14.890Z,12.60
2019-03-04T09:39:22.059Z,12.70
2019-03-04T09:40:30.730Z,12.60
2019-03-04T09:41:37.815Z,12.60
2019-03-04T09:42:45.177Z,12.60
2019-03-04T09:43:52.327Z,12.60
2019-03-04T09:44:59.506Z,12.60
2019-03-04T09:46:06.679Z,12.50
2019-03-04T09:47:13.833Z,12.60
2019-03-04T09:48:21.030Z,12.50
2019-03-04T09:49:28.186Z,12.50
2019-03-04T09:50:35.363Z,12.50
2019-03-04T09:51:42.520Z,12.50
2019-03-04T09:52:49.747Z,12.50
2019-03-04T09:53:56.913Z,12.40
2019-03-04T09:55:04.317Z,12.40
2019-03-04T09:56:11.836Z,12.40
2019-03-04T09:57:18.947Z,12.30
2019-03-04T09:58:26.108Z,12.30
2019-03-04T09:59:33.259Z,12.20
2019-03-04T10:01:22.375Z,12.30
2019-03-04T10:02:37.212Z,12.20
2019-03-04T10:04:24.013Z,12.20
2019-03-04T10:06:16.946Z,12.20
2019-03-04T10:07:46.478Z,12.10
2019-03-04T10:09:29.444Z,12.10
2019-03-04T10:11:56.168Z,12.10
2019-03-04T10:14:01.522Z,12.10
2019-03-04T10:15:35.875Z,12.10
2019-03-04T10:17:26.375Z,12.10
2019-03-04T10:19:07.728Z,12.10
2019-03-04T10:21:02.335Z,12.10
2019-03-04T10:22:32.142Z,12.10
2019-03-04T10:24:18.522Z,12.10
2019-03-04T10:26:05.110Z,12.10
2019-03-04T10:27:40.247Z,12.20
2019-03-04T10:29:31.156Z,12.20
2019-03-04T10:31:40.119Z,12.20
2019-03-04T10:33:39.462Z,12.30
2019-03-04T10:35:39.987Z,12.30
2019-03-04T10:37:44.062Z,12.30
2019-03-04T10:39:30.178Z,12.30
2019-03-04T10:41:21.298Z,12.30
2019-03-04T10:43:05.938Z,12.30
2019-03-04T10:45:14.975Z,12.30
2019-03-04T10:47:00.511Z,12.40
2019-03-04T10:48:07.747Z,12.30
2019-03-04T10:49:14.915Z,12.30
2019-03-04T10:50:22.115Z,12.30
2019-03-04T10:51:29.567Z,12.30
2019-03-04T10:52:36.838Z,12.40
2019-03-04T10:53:44.073Z,12.30
2019-03-04T10:54:51.316Z,12.40
2019-03-04T10:55:58.497Z,12.40
2019-03-04T10:57:05.654Z,12.40
2019-03-04T10:58:12.925Z,12.40
2019-03-04T10:59:20.114Z,12.40
2019-03-04T11:00:27.295Z,12.40
2019-03-04T11:01:34.534Z,12.40
2019-03-04T11:02:42.811Z,12.40
2019-03-04T11:03:49.967Z,12.40
2019-03-04T11:04:57.128Z,12.40
2019-03-04T11:06:04.316Z,12.40
2019-03-04T11:07:11.596Z,12.50
2019-03-04T11:08:18.748Z,12.50
2019-03-04T11:09:25.939Z,12.50
2019-03-04T11:10:33.092Z,12.50
2019-03-04T11:11:40.437Z,12.50
2019-03-04T11:12:47.618Z,12.50
2019-03-04T11:13:56.295Z,12.50
2019-03-04T11:15:03.548Z,12.50
2019-03-04T11:16:10.977Z,12.50
2019-03-04T11:17:18.144Z,12.50
2019-03-04T11:18:25.321Z,12.60
2019-03-04T11:19:32.477Z,12.60
2019-03-04T11:20:40.716Z,12.60
2019-03-04T11:21:47.872Z,12.60
2019-03-04T11:22:55.102Z,12.60
2019-03-04T11:24:02.298Z,12.60
2019-03-04T11:25:09.644Z,12.60
2019-03-04T11:26:16.826Z,12.60
2019-03-04T11:27:24.281Z,12.60
2019-03-04T11:28:31.468Z,12.60
2019-03-04T11:29:38.651Z,12.60
2019-03-04T11:30:46.299Z,12.60
2019-03-04T11:31:53.458Z,12.60
2019-03-04T11:33:01.418Z,12.60
2019-03-04T11:34:08.671Z,12.50
2019-03-04T11:35:15.834Z,12.50
2019-03-04T11:36:23.115Z,12.50
2019-03-04T11:37:30.283Z,12.50
2019-03-04T11:38:47.146Z,12.50
2019-03-04T11:40:16.709Z,12.50
2019-03-04T11:41:24.552Z,12.50
2019-03-04T11:42:31.746Z,12.50
2019-03-04T11:43:38.892Z,12.50
2019-03-04T11:44:47.933Z,12.50
2019-03-04T11:45:55.135Z,12.50
2019-03-04T11:47:02.319Z,12.50
2019-03-04T11:48:10.380Z,12.50
2019-03-04T11:49:18.659Z,12.50
2019-03-04T11:50:26.302Z,12.40
2019-03-04T11:51:33.669Z,12.50
2019-03-04T11:52:40.868Z,12.40
2019-03-04T11:53:49.338Z,12.40
2019-03-04T11:54:57.561Z,12.40
2019-03-04T11:56:05.354Z,12.40
2019-03-04T11:57:12.598Z,12.40
2019-03-04T11:58:19.963Z,12.40
2019-03-04T11:59:27.208Z,12.40
2019-03-04T12:00:44.078Z,12.40
2019-03-04T12:01:51.341Z,12.40
2019-03-04T12:02:59.624Z,12.40
2019-03-04T12:04:07.854Z,12.30
2019-03-04T12:05:15.187Z,12.30
2019-03-04T12:06:24.190Z,12.30
2019-03-04T12:07:31.341Z,12.40
2019-03-04T12:08:38.508Z,12.40
2019-03-04T12:09:45.625Z,12.30
2019-03-04T12:10:52.817Z,12.30
2019-03-04T12:12:00.005Z,12.30
2019-03-04T12:13:07.183Z,12.30
2019-03-04T12:14:14.380Z,12.30
2019-03-04T12:15:22.153Z,12.30
2019-03-04T12:16:29.320Z,12.30
2019-03-04T12:17:37.643Z,12.30
2019-03-04T12:18:44.809Z,12.30
2019-03-04T12:19:53.060Z,12.30
2019-03-04T12:21:01.410Z,12.30
2019-03-04T12:22:08.860Z,12.30
2019-03-04T12:23:18.540Z,12.30
2019-03-04T12:24:25.880Z,12.30
2019-03-04T12:25:33.056Z,12.20
2019-03-04T12:26:41.017Z,12.20
2019-03-04T12:27:48.178Z,12.20
2019-03-04T12:28:55.531Z,12.20
2019-03-04T12:30:02.675Z,12.20
2019-03-04T12:31:09.932Z,12.20
2019-03-04T12:32:24.924Z,12.10
2019-03-04T12:33:32.086Z,12.20
2019-03-04T12:34:39.243Z,12.10
2019-03-04T12:35:46.583Z,12.10
2019-03-04T12:36:54.714Z,12.10
2019-03-04T12:38:01.869Z,12.00
2019-03-04T12:39:11.701Z,12.00
2019-03-04T12:40:19.670Z,12.00
2019-03-04T12:41:26.913Z,12.00
2019-03-04T12:42:34.015Z,12.00
2019-03-04T12:43:41.204Z,12.00
2019-03-04T12:44:48.361Z,12.00
2019-03-04T12:45:55.618Z,12.00
2019-03-04T12:47:02.788Z,12.00
2019-03-04T12:48:09.965Z,12.00
2019-03-04T12:49:17.183Z,12.00
2019-03-04T12:50:26.515Z,11.90
2019-03-04T12:51:34.757Z,11.90
2019-03-04T12:52:42.042Z,11.90
2019-03-04T12:53:49.214Z,11.90
2019-03-04T12:54:57.345Z,11.90
2019-03-04T12:56:04.498Z,11.90
2019-03-04T12:57:11.660Z,11.90
2019-03-04T12:58:18.822Z,11.90
2019-03-04T12:59:26.027Z,11.80
2019-03-04T13:00:33.584Z,11.80
2019-03-04T13:01:40.742Z,11.80
2019-03-04T13:02:57.211Z,11.80
2019-03-04T13:03:56.855Z,11.80
2019-03-04T13:05:04.450Z,11.80
2019-03-04T13:06:12.508Z,11.80
2019-03-04T13:07:19.655Z,11.80
2019-03-04T13:08:26.805Z,11.70
2019-03-04T13:09:33.975Z,11.70
2019-03-04T13:10:41.156Z,11.70
2019-03-04T13:11:48.322Z,11.70
2019-03-04T13:12:55.584Z,11.70
2019-03-04T13:14:02.689Z,11.70
2019-03-04T13:15:16.605Z,11.70
2019-03-04T13:16:24.833Z,11.70
2019-03-04T13:17:31.989Z,11.70
2019-03-04T13:18:40.669Z,11.70
2019-03-04T13:19:48.024Z,11.60
2019-03-04T13:20:55.612Z,11.60
2019-03-04T13:22:08.477Z,11.60
2019-03-04T13:23:12.257Z,11.60
2019-03-04T13:24:19.424Z,11.60
2019-03-04T13:25:26.577Z,11.60
2019-03-04T13:26:33.752Z,11.50
2019-03-04T13:27:40.916Z,11.60
2019-03-04T13:28:48.081Z,11.50
2019-03-04T13:29:55.254Z,11.50
2019-03-04T13:31:02.407Z,11.50
2019-03-04T13:32:09.902Z,11.50
2019-03-04T13:33:17.191Z,11.50
2019-03-04T13:34:24.601Z,11.50
2019-03-04T13:35:31.819Z,11.50
2019-03-04T13:36:38.975Z,11.50
2019-03-04T13:37:47.211Z,11.50
2019-03-04T13:38:54.391Z,11.40
2019-03-04T13:40:01.563Z,11.40
2019-03-04T13:41:09.189Z,11.40
2019-03-04T13:42:16.341Z,11.40
2019-03-04T13:43:23.518Z,11.40
2019-03-04T13:44:31.354Z,11.40
2019-03-04T13:45:38.686Z,11.40
2019-03-04T13:46:47.130Z,11.40
2019-03-04T13:47:54.277Z,11.40
2019-03-04T13:49:03.398Z,11.40
2019-03-04T13:50:18.089Z,11.40
2019-03-04T13:51:25.286Z,11.40
2019-03-04T13:52:33.159Z,11.40
2019-03-04T13:53:40.330Z,11.40
2019-03-04T13:54:47.533Z,11.40
2019-03-04T13:55:56.139Z,11.40
2019-03-04T13:57:03.332Z,11.40
2019-03-04T13:58:10.625Z,11.40
2019-03-04T13:59:17.806Z,11.40
2019-03-04T14:00:25.437Z,11.30
2019-03-04T14:01:34.331Z,11.30
2019-03-04T14:02:41.504Z,11.30
2019-03-04T14:03:48.660Z,11.40
2019-03-04T14:04:55.844Z,11.30
2019-03-04T14:06:03.068Z,11.30
2019-03-04T14:07:11.083Z,11.30
2019-03-04T14:08:18.242Z,11.30
2019-03-04T14:09:26.477Z,11.30
2019-03-04T14:10:35.945Z,11.30
2019-03-04T14:11:43.146Z,11.30
2019-03-04T14:12:50.303Z,11.30
2019-03-04T14:13:57.572Z,11.30
2019-03-04T14:15:05.430Z,11.30
2019-03-04T14:16:13.839Z,11.30
2019-03-04T14:17:21.024Z,11.20
2019-03-04T14:18:28.242Z,11.20
2019-03-04T14:19:35.390Z,11.20
2019-03-04T14:20:42.620Z,11.30
2019-03-04T14:21:49.778Z,11.20
2019-03-04T14:22:58.056Z,11.30
2019-03-04T14:24:06.068Z,11.30
2019-03-04T14:25:13.679Z,11.30
2019-03-04T14:26:20.904Z,11.20
2019-03-04T14:27:28.104Z,11.20
2019-03-04T14:28:35.453Z,11.20
2019-03-04T14:29:42.969Z,11.20
2019-03-04T14:30:50.126Z,11.20
2019-03-04T14:31:57.295Z,11.20
2019-03-04T14:33:04.492Z,11.20
2019-03-04T14:34:11.589Z,11.20
2019-03-04T14:35:18.759Z,11.20
2019-03-04T14:36:25.941Z,11.20
2019-03-04T14:37:33.116Z,11.20
2019-03-04T14:38:40.283Z,11.20
2019-03-04T14:39:47.493Z,11.20
2019-03-04T14:40:54.681Z,11.20
2019-03-04T14:42:01.849Z,11.20
2019-03-04T14:43:09.004Z,11.30
2019-03-04T14:44:16.191Z,11.30
2019-03-04T14:45:23.698Z,11.30
2019-03-04T14:46:30.849Z,11.30
2019-03-04T14:47:38.014Z,11.30
2019-03-04T14:48:45.179Z,11.40
2019-03-04T14:49:52.377Z,11.40
2019-03-04T14:50:59.560Z,11.40
2019-03-04T14:52:07.791Z,11.50
2019-03-04T14:53:14.969Z,11.60
2019-03-04T14:54:22.139Z,11.60
2019-03-04T14:55:29.309Z,11.60
2019-03-04T14:56:36.742Z,11.70
2019-03-04T14:57:44.563Z,11.70
2019-03-04T14:59:09.486Z,11.80
2019-03-04T15:00:00.833Z,11.80
2019-03-04T15:01:09.876Z,11.80